sensor_id;sensor_type;location;lat;lon;timestamp;temperature;humidity
16517;DHT22;8371;52.272;9.746;2023-12-20T00:01:22;10.50;88.20
16517;DHT22;8371;52.272;9.746;2023-12-20T00:03:47;10.50;88.20
16517;DHT22;8371;52.272;9.746;2023-12-20T00:06:13;10.40;88.20
16517;DHT22;8371;52.272;9.746;2023-12-20T00:08:39;10.40;88.10
16517;DHT22;8371;52.272;9.746;2023-12-20T00:11:04;10.40;88.10
16517;DHT22;8371;52.272;9.746;2023-12-20T00:13:30;10.40;88.00
16517;DHT22;8371;52.272;9.746;2023-12-20T00:15:56;10.30;87.90
16517;DHT22;8371;52.272;9.746;2023-12-20T00:18:21;10.30;87.80
16517;DHT22;8371;52.272;9.746;2023-12-20T00:20:47;10.30;87.70
16517;DHT22;8371;52.272;9.746;2023-12-20T00:23:13;10.30;87.60
16517;DHT22;8371;52.272;9.746;2023-12-20T00:25:38;10.20;87.60
16517;DHT22;8371;52.272;9.746;2023-12-20T00:28:04;10.30;87.50
16517;DHT22;8371;52.272;9.746;2023-12-20T00:30:30;10.20;87.40
16517;DHT22;8371;52.272;9.746;2023-12-20T00:32:56;10.10;87.30
16517;DHT22;8371;52.272;9.746;2023-12-20T00:35:21;10.00;87.20
16517;DHT22;8371;52.272;9.746;2023-12-20T00:37:47;10.00;87.20
16517;DHT22;8371;52.272;9.746;2023-12-20T00:40:13;10.00;87.20
16517;DHT22;8371;52.272;9.746;2023-12-20T00:42:38;9.90;87.10
16517;DHT22;8371;52.272;9.746;2023-12-20T00:45:05;9.80;87.00
16517;DHT22;8371;52.272;9.746;2023-12-20T00:47:31;9.70;86.90
16517;DHT22;8371;52.272;9.746;2023-12-20T00:49:57;9.70;86.90
16517;DHT22;8371;52.272;9.746;2023-12-20T00:52:23;9.60;86.80
16517;DHT22;8371;52.272;9.746;2023-12-20T00:54:49;9.60;86.90
16517;DHT22;8371;52.272;9.746;2023-12-20T00:57:15;9.50;86.90
16517;DHT22;8371;52.272;9.746;2023-12-20T00:59:40;9.40;87.00
16517;DHT22;8371;52.272;9.746;2023-12-20T01:02:06;9.40;87.00
16517;DHT22;8371;52.272;9.746;2023-12-20T01:04:32;9.40;87.10
16517;DHT22;8371;52.272;9.746;2023-12-20T01:06:58;9.30;87.10
16517;DHT22;8371;52.272;9.746;2023-12-20T01:09:23;9.20;87.20
16517;DHT22;8371;52.272;9.746;2023-12-20T01:11:51;9.20;87.30
16517;DHT22;8371;52.272;9.746;2023-12-20T01:14:16;9.10;87.30
16517;DHT22;8371;52.272;9.746;2023-12-20T01:16:42;9.10;87.40
16517;DHT22;8371;52.272;9.746;2023-12-20T01:19:08;9.10;87.40
16517;DHT22;8371;52.272;9.746;2023-12-20T01:21:33;9.00;87.30
16517;DHT22;8371;52.272;9.746;2023-12-20T01:23:59;9.00;87.30
16517;DHT22;8371;52.272;9.746;2023-12-20T01:26:25;9.00;87.30
16517;DHT22;8371;52.272;9.746;2023-12-20T01:28:50;8.90;87.30
16517;DHT22;8371;52.272;9.746;2023-12-20T01:31:16;8.90;87.40
16517;DHT22;8371;52.272;9.746;2023-12-20T01:33:42;8.80;87.40
16517;DHT22;8371;52.272;9.746;2023-12-20T01:36:08;8.80;87.50
16517;DHT22;8371;52.272;9.746;2023-12-20T01:38:34;8.80;87.60
16517;DHT22;8371;52.272;9.746;2023-12-20T01:41:00;8.80;87.70
16517;DHT22;8371;52.272;9.746;2023-12-20T01:43:25;8.80;87.80
16517;DHT22;8371;52.272;9.746;2023-12-20T01:45:51;8.70;87.90
16517;DHT22;8371;52.272;9.746;2023-12-20T01:48:17;8.70;87.80
16517;DHT22;8371;52.272;9.746;2023-12-20T01:50:43;8.70;87.80
16517;DHT22;8371;52.272;9.746;2023-12-20T01:53:12;8.80;87.80
16517;DHT22;8371;52.272;9.746;2023-12-20T01:55:40;8.70;87.80
16517;DHT22;8371;52.272;9.746;2023-12-20T01:58:07;8.70;87.70
16517;DHT22;8371;52.272;9.746;2023-12-20T02:00:33;8.70;87.90
16517;DHT22;8371;52.272;9.746;2023-12-20T02:03:03;8.70;88.50
16517;DHT22;8371;52.272;9.746;2023-12-20T02:05:30;8.60;88.30
16517;DHT22;8371;52.272;9.746;2023-12-20T02:07:55;8.60;87.50
16517;DHT22;8371;52.272;9.746;2023-12-20T02:10:21;8.60;87.40
16517;DHT22;8371;52.272;9.746;2023-12-20T02:12:47;8.60;87.40
16517;DHT22;8371;52.272;9.746;2023-12-20T02:15:13;8.50;87.30
16517;DHT22;8371;52.272;9.746;2023-12-20T02:17:39;8.50;87.20
16517;DHT22;8371;52.272;9.746;2023-12-20T02:20:06;8.50;87.20
16517;DHT22;8371;52.272;9.746;2023-12-20T02:22:32;8.40;87.00
16517;DHT22;8371;52.272;9.746;2023-12-20T02:24:58;8.30;87.00
16517;DHT22;8371;52.272;9.746;2023-12-20T02:29:57;8.30;86.90
16517;DHT22;8371;52.272;9.746;2023-12-20T02:32:24;8.20;87.10
16517;DHT22;8371;52.272;9.746;2023-12-20T02:34:53;8.20;87.20
16517;DHT22;8371;52.272;9.746;2023-12-20T02:37:19;8.10;87.10
16517;DHT22;8371;52.272;9.746;2023-12-20T02:39:44;8.10;87.20
16517;DHT22;8371;52.272;9.746;2023-12-20T02:42:10;8.10;87.30
16517;DHT22;8371;52.272;9.746;2023-12-20T02:44:36;8.10;87.30
16517;DHT22;8371;52.272;9.746;2023-12-20T02:47:02;8.10;87.20
16517;DHT22;8371;52.272;9.746;2023-12-20T02:49:28;8.00;87.20
16517;DHT22;8371;52.272;9.746;2023-12-20T02:51:53;8.00;87.00
16517;DHT22;8371;52.272;9.746;2023-12-20T02:54:19;8.00;87.00
16517;DHT22;8371;52.272;9.746;2023-12-20T02:56:45;8.00;87.00
16517;DHT22;8371;52.272;9.746;2023-12-20T02:59:10;7.90;87.00
16517;DHT22;8371;52.272;9.746;2023-12-20T03:01:44;7.90;87.20
16517;DHT22;8371;52.272;9.746;2023-12-20T03:04:11;7.90;87.30
16517;DHT22;8371;52.272;9.746;2023-12-20T03:06:37;7.90;87.30
16517;DHT22;8371;52.272;9.746;2023-12-20T03:09:03;7.90;87.40
16517;DHT22;8371;52.272;9.746;2023-12-20T03:11:29;7.90;87.50
16517;DHT22;8371;52.272;9.746;2023-12-20T03:13:56;7.90;87.40
16517;DHT22;8371;52.272;9.746;2023-12-20T03:16:23;7.90;87.40
16517;DHT22;8371;52.272;9.746;2023-12-20T03:18:49;7.90;87.30
16517;DHT22;8371;52.272;9.746;2023-12-20T03:21:15;7.80;87.30
16517;DHT22;8371;52.272;9.746;2023-12-20T03:23:41;7.80;87.20
16517;DHT22;8371;52.272;9.746;2023-12-20T03:26:08;7.80;87.10
16517;DHT22;8371;52.272;9.746;2023-12-20T03:28:34;7.80;87.30
16517;DHT22;8371;52.272;9.746;2023-12-20T03:30:59;7.80;87.20
16517;DHT22;8371;52.272;9.746;2023-12-20T03:33:25;7.80;87.10
16517;DHT22;8371;52.272;9.746;2023-12-20T03:35:51;7.70;87.00
16517;DHT22;8371;52.272;9.746;2023-12-20T03:38:17;7.70;87.10
16517;DHT22;8371;52.272;9.746;2023-12-20T03:40:43;7.70;87.00
16517;DHT22;8371;52.272;9.746;2023-12-20T03:43:08;7.70;87.10
16517;DHT22;8371;52.272;9.746;2023-12-20T03:45:34;7.70;87.30
16517;DHT22;8371;52.272;9.746;2023-12-20T03:48:00;7.70;87.40
16517;DHT22;8371;52.272;9.746;2023-12-20T03:50:26;7.70;87.50
16517;DHT22;8371;52.272;9.746;2023-12-20T03:52:52;7.70;87.40
16517;DHT22;8371;52.272;9.746;2023-12-20T03:55:18;7.70;87.40
16517;DHT22;8371;52.272;9.746;2023-12-20T03:57:44;7.70;87.50
16517;DHT22;8371;52.272;9.746;2023-12-20T04:00:10;7.70;87.50
16517;DHT22;8371;52.272;9.746;2023-12-20T04:02:37;7.80;87.50
16517;DHT22;8371;52.272;9.746;2023-12-20T04:05:03;7.80;87.50
16517;DHT22;8371;52.272;9.746;2023-12-20T04:07:30;7.80;87.60
16517;DHT22;8371;52.272;9.746;2023-12-20T04:09:56;7.80;88.40
16517;DHT22;8371;52.272;9.746;2023-12-20T04:12:22;7.90;87.70
16517;DHT22;8371;52.272;9.746;2023-12-20T04:14:48;7.90;87.70
16517;DHT22;8371;52.272;9.746;2023-12-20T04:17:15;7.90;87.90
16517;DHT22;8371;52.272;9.746;2023-12-20T04:19:42;7.80;87.60
16517;DHT22;8371;52.272;9.746;2023-12-20T04:22:07;7.90;87.70
16517;DHT22;8371;52.272;9.746;2023-12-20T04:24:33;8.00;87.80
16517;DHT22;8371;52.272;9.746;2023-12-20T04:26:59;8.00;87.80
16517;DHT22;8371;52.272;9.746;2023-12-20T04:29:24;8.10;87.90
16517;DHT22;8371;52.272;9.746;2023-12-20T04:31:50;8.10;87.90
16517;DHT22;8371;52.272;9.746;2023-12-20T04:34:17;8.10;87.80
16517;DHT22;8371;52.272;9.746;2023-12-20T04:36:43;8.20;87.70
16517;DHT22;8371;52.272;9.746;2023-12-20T04:39:10;8.30;87.70
16517;DHT22;8371;52.272;9.746;2023-12-20T04:41:35;8.30;87.70
16517;DHT22;8371;52.272;9.746;2023-12-20T04:44:01;8.30;87.60
16517;DHT22;8371;52.272;9.746;2023-12-20T04:46:27;8.30;87.40
16517;DHT22;8371;52.272;9.746;2023-12-20T04:48:53;8.30;87.30
16517;DHT22;8371;52.272;9.746;2023-12-20T04:51:18;8.50;87.40
16517;DHT22;8371;52.272;9.746;2023-12-20T04:53:44;8.50;87.40
16517;DHT22;8371;52.272;9.746;2023-12-20T04:56:10;8.50;87.30
16517;DHT22;8371;52.272;9.746;2023-12-20T04:58:36;8.50;87.20
16517;DHT22;8371;52.272;9.746;2023-12-20T05:01:01;8.50;87.00
16517;DHT22;8371;52.272;9.746;2023-12-20T05:03:27;8.60;87.00
16517;DHT22;8371;52.272;9.746;2023-12-20T05:05:53;8.50;86.90
16517;DHT22;8371;52.272;9.746;2023-12-20T05:08:18;8.50;86.90
16517;DHT22;8371;52.272;9.746;2023-12-20T05:10:45;8.60;86.90
16517;DHT22;8371;52.272;9.746;2023-12-20T05:13:10;8.60;86.80
16517;DHT22;8371;52.272;9.746;2023-12-20T05:15:36;8.60;86.90
16517;DHT22;8371;52.272;9.746;2023-12-20T05:18:02;8.60;86.80
16517;DHT22;8371;52.272;9.746;2023-12-20T05:20:28;8.60;86.90
16517;DHT22;8371;52.272;9.746;2023-12-20T05:22:53;8.60;86.90
16517;DHT22;8371;52.272;9.746;2023-12-20T05:25:19;8.60;86.80
16517;DHT22;8371;52.272;9.746;2023-12-20T05:27:45;8.70;86.90
16517;DHT22;8371;52.272;9.746;2023-12-20T05:30:11;8.70;86.90
16517;DHT22;8371;52.272;9.746;2023-12-20T05:32:37;8.70;86.90
16517;DHT22;8371;52.272;9.746;2023-12-20T05:35:02;8.70;86.90
16517;DHT22;8371;52.272;9.746;2023-12-20T05:37:28;8.80;86.90
16517;DHT22;8371;52.272;9.746;2023-12-20T05:39:54;8.80;86.90
16517;DHT22;8371;52.272;9.746;2023-12-20T05:42:19;8.80;86.90
16517;DHT22;8371;52.272;9.746;2023-12-20T05:44:45;8.80;86.90
16517;DHT22;8371;52.272;9.746;2023-12-20T05:47:11;8.90;87.00
16517;DHT22;8371;52.272;9.746;2023-12-20T05:49:36;8.90;86.60
16517;DHT22;8371;52.272;9.746;2023-12-20T05:52:02;8.90;86.60
16517;DHT22;8371;52.272;9.746;2023-12-20T05:54:28;8.90;86.50
16517;DHT22;8371;52.272;9.746;2023-12-20T05:56:55;8.90;86.50
16517;DHT22;8371;52.272;9.746;2023-12-20T05:59:21;9.10;86.60
16517;DHT22;8371;52.272;9.746;2023-12-20T06:01:47;8.90;86.40
16517;DHT22;8371;52.272;9.746;2023-12-20T06:04:12;8.90;86.40
16517;DHT22;8371;52.272;9.746;2023-12-20T06:06:42;8.90;86.50
16517;DHT22;8371;52.272;9.746;2023-12-20T06:09:08;8.90;86.40
16517;DHT22;8371;52.272;9.746;2023-12-20T06:11:33;8.90;86.40
16517;DHT22;8371;52.272;9.746;2023-12-20T06:13:59;8.90;86.30
16517;DHT22;8371;52.272;9.746;2023-12-20T06:16:25;8.90;86.00
16517;DHT22;8371;52.272;9.746;2023-12-20T06:18:50;8.80;86.00
16517;DHT22;8371;52.272;9.746;2023-12-20T06:21:16;8.80;86.00
16517;DHT22;8371;52.272;9.746;2023-12-20T06:23:42;8.80;86.10
16517;DHT22;8371;52.272;9.746;2023-12-20T06:26:07;8.80;86.10
16517;DHT22;8371;52.272;9.746;2023-12-20T06:28:33;8.70;86.10
16517;DHT22;8371;52.272;9.746;2023-12-20T06:30:59;8.70;86.30
16517;DHT22;8371;52.272;9.746;2023-12-20T06:33:26;8.70;86.30
16517;DHT22;8371;52.272;9.746;2023-12-20T06:35:52;8.70;86.30
16517;DHT22;8371;52.272;9.746;2023-12-20T06:38:18;8.60;87.00
16517;DHT22;8371;52.272;9.746;2023-12-20T06:40:44;8.60;86.20
16517;DHT22;8371;52.272;9.746;2023-12-20T06:43:10;8.60;86.20
16517;DHT22;8371;52.272;9.746;2023-12-20T06:45:35;8.60;86.30
16517;DHT22;8371;52.272;9.746;2023-12-20T06:48:01;8.60;86.40
16517;DHT22;8371;52.272;9.746;2023-12-20T06:50:27;8.60;86.40
16517;DHT22;8371;52.272;9.746;2023-12-20T06:52:53;8.50;87.00
16517;DHT22;8371;52.272;9.746;2023-12-20T06:55:19;8.50;86.20
16517;DHT22;8371;52.272;9.746;2023-12-20T06:57:44;8.50;86.10
16517;DHT22;8371;52.272;9.746;2023-12-20T07:00:11;8.50;86.00
16517;DHT22;8371;52.272;9.746;2023-12-20T07:02:37;8.50;86.00
16517;DHT22;8371;52.272;9.746;2023-12-20T07:05:03;8.40;86.00
16517;DHT22;8371;52.272;9.746;2023-12-20T07:07:29;8.40;86.20
16517;DHT22;8371;52.272;9.746;2023-12-20T07:09:55;8.40;86.30
16517;DHT22;8371;52.272;9.746;2023-12-20T07:12:21;8.40;86.50
16517;DHT22;8371;52.272;9.746;2023-12-20T07:14:47;8.40;86.60
16517;DHT22;8371;52.272;9.746;2023-12-20T07:17:13;8.40;86.60
16517;DHT22;8371;52.272;9.746;2023-12-20T07:19:41;8.40;86.70
16517;DHT22;8371;52.272;9.746;2023-12-20T07:22:07;8.50;86.80
16517;DHT22;8371;52.272;9.746;2023-12-20T07:24:33;8.40;86.70
16517;DHT22;8371;52.272;9.746;2023-12-20T07:26:59;8.50;86.60
16517;DHT22;8371;52.272;9.746;2023-12-20T07:29:25;8.50;86.90
16517;DHT22;8371;52.272;9.746;2023-12-20T07:31:52;8.50;86.30
16517;DHT22;8371;52.272;9.746;2023-12-20T07:34:22;8.50;86.30
16517;DHT22;8371;52.272;9.746;2023-12-20T07:36:47;8.50;86.20
16517;DHT22;8371;52.272;9.746;2023-12-20T07:39:14;8.40;86.90
16517;DHT22;8371;52.272;9.746;2023-12-20T07:41:40;8.50;86.40
16517;DHT22;8371;52.272;9.746;2023-12-20T07:44:06;8.40;86.60
16517;DHT22;8371;52.272;9.746;2023-12-20T07:46:32;8.40;86.70
16517;DHT22;8371;52.272;9.746;2023-12-20T07:48:58;8.50;86.90
16517;DHT22;8371;52.272;9.746;2023-12-20T07:51:23;8.50;86.80
16517;DHT22;8371;52.272;9.746;2023-12-20T07:53:49;8.60;86.80
16517;DHT22;8371;52.272;9.746;2023-12-20T07:56:17;8.60;86.90
16517;DHT22;8371;52.272;9.746;2023-12-20T07:58:43;8.60;86.80
16517;DHT22;8371;52.272;9.746;2023-12-20T08:01:10;8.70;86.90
16517;DHT22;8371;52.272;9.746;2023-12-20T08:03:37;8.70;86.80
16517;DHT22;8371;52.272;9.746;2023-12-20T08:06:03;8.70;86.70
16517;DHT22;8371;52.272;9.746;2023-12-20T08:08:28;8.70;86.80
16517;DHT22;8371;52.272;9.746;2023-12-20T08:10:54;8.80;86.70
16517;DHT22;8371;52.272;9.746;2023-12-20T08:13:20;8.80;86.70
16517;DHT22;8371;52.272;9.746;2023-12-20T08:15:47;8.80;86.80
16517;DHT22;8371;52.272;9.746;2023-12-20T08:18:13;8.80;86.70
16517;DHT22;8371;52.272;9.746;2023-12-20T08:20:39;8.90;86.70
16517;DHT22;8371;52.272;9.746;2023-12-20T08:23:04;8.90;86.70
16517;DHT22;8371;52.272;9.746;2023-12-20T08:25:30;8.90;86.60
16517;DHT22;8371;52.272;9.746;2023-12-20T08:27:56;9.00;86.60
16517;DHT22;8371;52.272;9.746;2023-12-20T08:30:21;9.00;86.60
16517;DHT22;8371;52.272;9.746;2023-12-20T08:32:50;9.00;86.50
16517;DHT22;8371;52.272;9.746;2023-12-20T08:35:16;9.00;86.40
16517;DHT22;8371;52.272;9.746;2023-12-20T08:37:43;9.00;86.40
16517;DHT22;8371;52.272;9.746;2023-12-20T08:40:09;9.10;86.20
16517;DHT22;8371;52.272;9.746;2023-12-20T08:42:35;9.10;86.10
16517;DHT22;8371;52.272;9.746;2023-12-20T08:45:01;9.10;86.20
16517;DHT22;8371;52.272;9.746;2023-12-20T08:47:26;9.10;86.30
16517;DHT22;8371;52.272;9.746;2023-12-20T08:49:52;9.10;86.20
16517;DHT22;8371;52.272;9.746;2023-12-20T08:52:20;9.10;86.10
16517;DHT22;8371;52.272;9.746;2023-12-20T08:54:45;9.10;86.20
16517;DHT22;8371;52.272;9.746;2023-12-20T08:57:11;9.10;86.40
16517;DHT22;8371;52.272;9.746;2023-12-20T08:59:37;9.20;86.40
16517;DHT22;8371;52.272;9.746;2023-12-20T09:02:03;9.20;86.30
16517;DHT22;8371;52.272;9.746;2023-12-20T09:04:29;9.20;86.40
16517;DHT22;8371;52.272;9.746;2023-12-20T09:06:54;9.30;86.50
16517;DHT22;8371;52.272;9.746;2023-12-20T09:09:20;9.30;86.40
16517;DHT22;8371;52.272;9.746;2023-12-20T09:11:46;9.30;86.30
16517;DHT22;8371;52.272;9.746;2023-12-20T09:14:13;9.40;86.50
16517;DHT22;8371;52.272;9.746;2023-12-20T09:16:39;9.40;86.40
16517;DHT22;8371;52.272;9.746;2023-12-20T09:19:05;9.50;86.10
16517;DHT22;8371;52.272;9.746;2023-12-20T09:21:31;9.50;86.00
16517;DHT22;8371;52.272;9.746;2023-12-20T09:23:56;9.50;86.00
16517;DHT22;8371;52.272;9.746;2023-12-20T09:26:22;9.50;86.30
16517;DHT22;8371;52.272;9.746;2023-12-20T09:28:48;9.50;86.20
16517;DHT22;8371;52.272;9.746;2023-12-20T09:31:14;9.60;86.20
16517;DHT22;8371;52.272;9.746;2023-12-20T09:33:39;9.60;86.00
16517;DHT22;8371;52.272;9.746;2023-12-20T09:36:05;9.70;86.10
16517;DHT22;8371;52.272;9.746;2023-12-20T09:38:33;9.70;86.10
16517;DHT22;8371;52.272;9.746;2023-12-20T09:41:00;9.70;85.80
16517;DHT22;8371;52.272;9.746;2023-12-20T09:43:27;9.70;86.00
16517;DHT22;8371;52.272;9.746;2023-12-20T09:45:58;9.80;85.70
16517;DHT22;8371;52.272;9.746;2023-12-20T09:48:25;9.80;85.60
16517;DHT22;8371;52.272;9.746;2023-12-20T09:50:52;9.80;85.60
16517;DHT22;8371;52.272;9.746;2023-12-20T09:53:17;9.80;85.50
16517;DHT22;8371;52.272;9.746;2023-12-20T09:55:44;9.90;85.50
16517;DHT22;8371;52.272;9.746;2023-12-20T09:58:10;9.90;85.40
16517;DHT22;8371;52.272;9.746;2023-12-20T10:00:36;9.80;85.10
16517;DHT22;8371;52.272;9.746;2023-12-20T10:03:02;9.90;85.10
16517;DHT22;8371;52.272;9.746;2023-12-20T10:05:32;10.00;85.20
16517;DHT22;8371;52.272;9.746;2023-12-20T10:07:59;10.00;85.30
16517;DHT22;8371;52.272;9.746;2023-12-20T10:10:25;10.00;85.30
16517;DHT22;8371;52.272;9.746;2023-12-20T10:15:29;10.00;85.10
16517;DHT22;8371;52.272;9.746;2023-12-20T10:17:55;10.00;84.90
16517;DHT22;8371;52.272;9.746;2023-12-20T10:20:21;10.20;85.20
16517;DHT22;8371;52.272;9.746;2023-12-20T10:22:46;10.10;85.00
16517;DHT22;8371;52.272;9.746;2023-12-20T10:25:13;10.10;84.80
16517;DHT22;8371;52.272;9.746;2023-12-20T10:27:38;10.20;84.90
16517;DHT22;8371;52.272;9.746;2023-12-20T10:30:13;10.10;84.70
16517;DHT22;8371;52.272;9.746;2023-12-20T10:32:39;9.80;84.50
16517;DHT22;8371;52.272;9.746;2023-12-20T10:35:06;10.10;84.80
16517;DHT22;8371;52.272;9.746;2023-12-20T10:37:37;10.10;84.90
16517;DHT22;8371;52.272;9.746;2023-12-20T10:40:04;10.20;84.70
16517;DHT22;8371;52.272;9.746;2023-12-20T10:42:31;10.20;85.60
16517;DHT22;8371;52.272;9.746;2023-12-20T10:44:59;10.20;84.80
16517;DHT22;8371;52.272;9.746;2023-12-20T10:47:25;10.20;84.60
16517;DHT22;8371;52.272;9.746;2023-12-20T10:49:52;10.20;84.70
16517;DHT22;8371;52.272;9.746;2023-12-20T10:52:19;10.20;84.70
16517;DHT22;8371;52.272;9.746;2023-12-20T10:54:47;10.20;84.50
16517;DHT22;8371;52.272;9.746;2023-12-20T10:57:12;10.20;84.60
16517;DHT22;8371;52.272;9.746;2023-12-20T10:59:39;10.20;84.50
16517;DHT22;8371;52.272;9.746;2023-12-20T11:02:05;10.20;84.50
16517;DHT22;8371;52.272;9.746;2023-12-20T11:04:43;10.20;84.70
16517;DHT22;8371;52.272;9.746;2023-12-20T11:07:19;10.30;84.80
16517;DHT22;8371;52.272;9.746;2023-12-20T11:09:56;10.30;85.10
16517;DHT22;8371;52.272;9.746;2023-12-20T11:12:26;10.30;84.40
16517;DHT22;8371;52.272;9.746;2023-12-20T11:14:53;10.30;84.50
16517;DHT22;8371;52.272;9.746;2023-12-20T11:17:28;10.20;84.40
16517;DHT22;8371;52.272;9.746;2023-12-20T11:22:31;10.20;84.70
16517;DHT22;8371;52.272;9.746;2023-12-20T11:25:06;10.20;84.70
16517;DHT22;8371;52.272;9.746;2023-12-20T11:27:39;10.20;84.80
16517;DHT22;8371;52.272;9.746;2023-12-20T11:30:05;10.20;84.90
16517;DHT22;8371;52.272;9.746;2023-12-20T11:32:34;10.30;85.10
16517;DHT22;8371;52.272;9.746;2023-12-20T11:37:38;10.30;84.90
16517;DHT22;8371;52.272;9.746;2023-12-20T11:40:11;10.20;84.70
16517;DHT22;8371;52.272;9.746;2023-12-20T11:42:39;10.20;84.70
16517;DHT22;8371;52.272;9.746;2023-12-20T11:45:08;10.20;84.60
16517;DHT22;8371;52.272;9.746;2023-12-20T11:47:34;10.20;84.60
16517;DHT22;8371;52.272;9.746;2023-12-20T11:50:00;10.20;84.60
16517;DHT22;8371;52.272;9.746;2023-12-20T11:52:28;10.20;84.60
16517;DHT22;8371;52.272;9.746;2023-12-20T11:54:53;10.10;84.60
16517;DHT22;8371;52.272;9.746;2023-12-20T11:57:19;10.10;84.70
16517;DHT22;8371;52.272;9.746;2023-12-20T11:59:45;10.10;84.60
16517;DHT22;8371;52.272;9.746;2023-12-20T12:02:11;10.00;84.30
16517;DHT22;8371;52.272;9.746;2023-12-20T12:04:37;10.00;83.80
16517;DHT22;8371;52.272;9.746;2023-12-20T12:07:04;9.80;83.00
16517;DHT22;8371;52.272;9.746;2023-12-20T12:09:29;9.70;82.60
16517;DHT22;8371;52.272;9.746;2023-12-20T12:11:55;9.50;82.70
16517;DHT22;8371;52.272;9.746;2023-12-20T12:14:21;9.40;82.80
16517;DHT22;8371;52.272;9.746;2023-12-20T12:16:47;9.20;82.90
16517;DHT22;8371;52.272;9.746;2023-12-20T12:19:22;9.00;83.00
16517;DHT22;8371;52.272;9.746;2023-12-20T12:21:50;8.90;83.30
16517;DHT22;8371;52.272;9.746;2023-12-20T12:24:20;8.80;83.40
16517;DHT22;8371;52.272;9.746;2023-12-20T12:26:51;8.60;83.50
16517;DHT22;8371;52.272;9.746;2023-12-20T12:29:18;8.60;83.80
16517;DHT22;8371;52.272;9.746;2023-12-20T12:31:44;8.40;84.10
16517;DHT22;8371;52.272;9.746;2023-12-20T12:34:10;8.40;84.30
16517;DHT22;8371;52.272;9.746;2023-12-20T12:36:36;8.30;84.40
16517;DHT22;8371;52.272;9.746;2023-12-20T12:39:02;8.20;84.50
16517;DHT22;8371;52.272;9.746;2023-12-20T12:41:30;8.20;85.10
16517;DHT22;8371;52.272;9.746;2023-12-20T12:43:56;8.10;84.70
16517;DHT22;8371;52.272;9.746;2023-12-20T12:46:21;8.10;84.90
16517;DHT22;8371;52.272;9.746;2023-12-20T12:48:47;8.10;85.10
16517;DHT22;8371;52.272;9.746;2023-12-20T12:51:13;8.00;85.00
16517;DHT22;8371;52.272;9.746;2023-12-20T12:53:39;8.00;85.00
16517;DHT22;8371;52.272;9.746;2023-12-20T12:56:06;8.10;85.00
16517;DHT22;8371;52.272;9.746;2023-12-20T12:58:32;8.00;84.80
16517;DHT22;8371;52.272;9.746;2023-12-20T13:00:58;8.10;85.10
16517;DHT22;8371;52.272;9.746;2023-12-20T13:03:24;8.10;85.30
16517;DHT22;8371;52.272;9.746;2023-12-20T13:05:50;8.10;85.40
16517;DHT22;8371;52.272;9.746;2023-12-20T13:08:16;8.10;85.40
16517;DHT22;8371;52.272;9.746;2023-12-20T13:10:41;8.10;85.40
16517;DHT22;8371;52.272;9.746;2023-12-20T13:13:07;8.20;85.40
16517;DHT22;8371;52.272;9.746;2023-12-20T13:15:33;8.20;85.50
16517;DHT22;8371;52.272;9.746;2023-12-20T13:17:58;8.30;85.60
16517;DHT22;8371;52.272;9.746;2023-12-20T13:20:25;8.30;85.70
16517;DHT22;8371;52.272;9.746;2023-12-20T13:22:51;8.30;85.80
16517;DHT22;8371;52.272;9.746;2023-12-20T13:25:16;8.40;85.80
16517;DHT22;8371;52.272;9.746;2023-12-20T13:27:42;8.40;85.70
16517;DHT22;8371;52.272;9.746;2023-12-20T13:30:09;8.50;85.80
16517;DHT22;8371;52.272;9.746;2023-12-20T13:32:35;8.50;85.70
16517;DHT22;8371;52.272;9.746;2023-12-20T13:35:01;8.60;85.80
16517;DHT22;8371;52.272;9.746;2023-12-20T13:37:26;8.60;85.70
16517;DHT22;8371;52.272;9.746;2023-12-20T13:39:52;8.70;85.80
16517;DHT22;8371;52.272;9.746;2023-12-20T13:42:18;8.70;85.70
16517;DHT22;8371;52.272;9.746;2023-12-20T13:44:43;8.70;85.60
16517;DHT22;8371;52.272;9.746;2023-12-20T13:47:09;8.80;85.60
16517;DHT22;8371;52.272;9.746;2023-12-20T13:49:35;8.80;85.50
16517;DHT22;8371;52.272;9.746;2023-12-20T13:52:00;8.80;85.40
16517;DHT22;8371;52.272;9.746;2023-12-20T13:54:29;8.90;85.50
16517;DHT22;8371;52.272;9.746;2023-12-20T13:56:55;9.10;85.60
16517;DHT22;8371;52.272;9.746;2023-12-20T13:59:20;8.90;85.50
16517;DHT22;8371;52.272;9.746;2023-12-20T14:01:46;9.00;85.40
16517;DHT22;8371;52.272;9.746;2023-12-20T14:04:11;9.00;85.30
16517;DHT22;8371;52.272;9.746;2023-12-20T14:06:37;9.00;85.30
16517;DHT22;8371;52.272;9.746;2023-12-20T14:09:03;9.00;85.00
16517;DHT22;8371;52.272;9.746;2023-12-20T14:11:28;9.00;85.10
16517;DHT22;8371;52.272;9.746;2023-12-20T14:13:54;9.10;84.90
16517;DHT22;8371;52.272;9.746;2023-12-20T14:16:22;9.10;84.80
16517;DHT22;8371;52.272;9.746;2023-12-20T14:18:49;9.10;84.70
16517;DHT22;8371;52.272;9.746;2023-12-20T14:21:14;9.10;84.40
16517;DHT22;8371;52.272;9.746;2023-12-20T14:23:40;9.10;84.40
16517;DHT22;8371;52.272;9.746;2023-12-20T14:26:06;9.10;84.50
16517;DHT22;8371;52.272;9.746;2023-12-20T14:28:31;9.10;84.40
16517;DHT22;8371;52.272;9.746;2023-12-20T14:30:57;9.10;84.40
16517;DHT22;8371;52.272;9.746;2023-12-20T14:33:23;9.10;84.60
16517;DHT22;8371;52.272;9.746;2023-12-20T14:35:48;9.10;84.40
16517;DHT22;8371;52.272;9.746;2023-12-20T14:38:14;9.10;84.30
16517;DHT22;8371;52.272;9.746;2023-12-20T14:40:41;9.20;84.30
16517;DHT22;8371;52.272;9.746;2023-12-20T14:43:06;9.10;84.10
16517;DHT22;8371;52.272;9.746;2023-12-20T14:45:32;9.10;84.10
16517;DHT22;8371;52.272;9.746;2023-12-20T14:47:58;9.10;84.00
16517;DHT22;8371;52.272;9.746;2023-12-20T14:50:24;9.10;84.00
16517;DHT22;8371;52.272;9.746;2023-12-20T14:52:51;9.10;83.90
16517;DHT22;8371;52.272;9.746;2023-12-20T14:55:18;9.10;83.90
16517;DHT22;8371;52.272;9.746;2023-12-20T14:57:44;9.20;83.80
16517;DHT22;8371;52.272;9.746;2023-12-20T15:00:10;9.10;83.70
16517;DHT22;8371;52.272;9.746;2023-12-20T15:02:38;9.20;83.70
16517;DHT22;8371;52.272;9.746;2023-12-20T15:05:04;9.10;83.60
16517;DHT22;8371;52.272;9.746;2023-12-20T15:07:30;9.10;83.50
16517;DHT22;8371;52.272;9.746;2023-12-20T15:09:56;9.10;83.50
16517;DHT22;8371;52.272;9.746;2023-12-20T15:12:21;9.10;83.40
16517;DHT22;8371;52.272;9.746;2023-12-20T15:14:48;9.10;83.50
16517;DHT22;8371;52.272;9.746;2023-12-20T15:17:14;9.10;83.20
16517;DHT22;8371;52.272;9.746;2023-12-20T15:19:41;9.10;83.20
16517;DHT22;8371;52.272;9.746;2023-12-20T15:22:08;9.10;83.30
16517;DHT22;8371;52.272;9.746;2023-12-20T15:24:33;9.10;83.30
16517;DHT22;8371;52.272;9.746;2023-12-20T15:27:05;9.10;83.20
16517;DHT22;8371;52.272;9.746;2023-12-20T15:29:31;9.10;83.20
16517;DHT22;8371;52.272;9.746;2023-12-20T15:31:56;9.10;83.20
16517;DHT22;8371;52.272;9.746;2023-12-20T15:34:22;9.00;83.20
16517;DHT22;8371;52.272;9.746;2023-12-20T15:36:48;9.10;83.30
16517;DHT22;8371;52.272;9.746;2023-12-20T15:39:14;9.10;83.10
16517;DHT22;8371;52.272;9.746;2023-12-20T15:41:40;9.10;83.10
16517;DHT22;8371;52.272;9.746;2023-12-20T15:44:05;9.10;82.00
16517;DHT22;8371;52.272;9.746;2023-12-20T15:46:31;9.10;82.70
16517;DHT22;8371;52.272;9.746;2023-12-20T15:48:57;9.00;82.50
16517;DHT22;8371;52.272;9.746;2023-12-20T15:51:23;9.00;82.60
16517;DHT22;8371;52.272;9.746;2023-12-20T15:53:50;9.00;82.30
16517;DHT22;8371;52.272;9.746;2023-12-20T15:56:16;9.00;82.50
16517;DHT22;8371;52.272;9.746;2023-12-20T15:58:43;9.00;82.30
16517;DHT22;8371;52.272;9.746;2023-12-20T16:01:09;8.90;81.70
16517;DHT22;8371;52.272;9.746;2023-12-20T16:03:35;8.90;82.10